Time;durP1;ratioP1;P1;durP2;ratioP2;P2;SDS_P1;SDS_P2;PMS_P1;PMS_P2;Temp;Humidity;BMP_temperature;BMP_pressure;BME280_temperature;BME280_humidity;BME280_pressure;Samples;Min_cycle;Max_cycle;Signal;HPM_P1;HPM_P2
2022/09/18 00:02:12;;;;;;;;;;;;;;;;;;5111849;27;19908;-80
2022/09/18 00:04:59;;;;;;;;;;;;;;;;;;5107513;27;19911;-79
2022/09/18 00:07:45;;;;;;;;;;;;;;;;;;5090958;28;19920;-80
2022/09/18 00:10:32;;;;;;;;;;;;;;;;;;5101992;27;19912;-79
2022/09/18 00:13:18;;;;;;;;;;;;;;;;;;5103339;28;20240;-79
2022/09/18 00:16:05;;;;;;;;;;;;;;;;;;5102968;27;19915;-79
2022/09/18 00:18:51;;;;;;;;;;;;;;;;;;5107680;28;19923;-80
2022/09/18 00:21:38;;;;;;;;;;;;;;;;;;5102111;28;19908;-79
2022/09/18 00:24:24;;;;;;;;;;;;;;;;;;5094391;27;19931;-79
2022/09/18 00:27:11;;;;;;;;;;;;;;;;;;5105569;28;19927;-79
2022/09/18 00:29:57;;;;;;;;;;;;;;;;;;5108577;27;20385;-79
2022/09/18 00:32:44;;;;;;;;;;;;;;;;;;5107873;27;19916;-79
2022/09/18 00:35:30;;;;;;;;;;;;;;;;;;5103288;28;19916;-79
2022/09/18 00:38:17;;;;;;;;;;;;;;;;;;5106572;28;19918;-79
2022/09/18 00:41:03;;;;;;;;;;;;;;;;;;5104613;27;19935;-79
2022/09/18 00:43:50;;;;;;;;;;;;;;;;;;5091811;28;19911;-79
2022/09/18 00:46:36;;;;;;;;;;;;;;;;;;5090348;27;19916;-80
2022/09/18 00:49:24;;;;;;;;;;;;;;;;;;5093508;28;19916;-79
2022/09/18 00:52:10;;;;;;;;;;;;;;;;;;5108261;27;19910;-79
2022/09/18 00:54:57;;;;;;;;;;;;;;;;;;5108175;27;19934;-80
2022/09/18 00:57:43;;;;;;;;;;;;;;;;;;5104037;28;19919;-79
2022/09/18 01:00:30;;;;;;;;;;;;;;;;;;5108359;28;19916;-79
2022/09/18 01:03:16;;;;;;;;;;;;;;;;;;5100154;28;19908;-79
2022/09/18 01:06:03;;;;;;;;;;;;;;;;;;5087088;28;20309;-79
2022/09/18 01:08:49;;;;;;;;;;;;;;;;;;5094540;28;19916;-81
2022/09/18 01:11:36;;;;;;;;;;;;;;;;;;5104534;27;20311;-81
2022/09/18 01:14:22;;;;;;;;;;;;;;;;;;5095465;27;19915;-80
2022/09/18 01:17:09;;;;;;;;;;;;;;;;;;5096211;28;19912;-80
2022/09/18 01:19:55;;;;;;;;;;;;;;;;;;5104141;27;19916;-80
2022/09/18 01:22:42;;;;;;;;;;;;;;;;;;5114235;27;19912;-80
2022/09/18 01:25:28;;;;;;;;;;;;;;;;;;5112258;27;19923;-80
2022/09/18 01:28:15;;;;;;;;;;;;;;;;;;5095232;28;19920;-80
2022/09/18 01:31:01;;;;;;;;;;;;;;;;;;5098191;27;19916;-81
2022/09/18 01:33:48;;;;;;;;;;;;;;;;;;5110171;27;19915;-81
2022/09/18 01:36:35;;;;;;;;;;;;;;;;;;5108487;27;19927;-79
2022/09/18 01:39:21;;;;;;;;;;;;;;;;;;5108172;27;20386;-78
2022/09/18 01:42:08;;;;;;;;;;;;;;;;;;5102998;27;19919;-80
2022/09/18 01:44:54;;;;;;;;;;;;;;;;;;5110420;27;19912;-80
2022/09/18 01:47:41;;;;;;;;;;;;;;;;;;5109844;27;19924;-79
2022/09/18 01:50:28;;;;;;;;;;;;;;;;;;5113987;27;19907;-80
2022/09/18 01:53:14;;;;;;;;;;;;;;;;;;5103437;27;20613;-79
2022/09/18 01:56:00;;;;;;;;;;;;;;;;;;5107875;27;19923;-79
2022/09/18 01:58:47;;;;;;;;;;;;;;;;;;5121104;27;20377;-79
2022/09/18 02:01:33;;;;;;;;;;;;;;;;;;5107353;27;19919;-79
2022/09/18 02:04:20;;;;;;;;;;;;;;;;;;5114103;27;19912;-80
2022/09/18 02:07:07;;;;;;;;;;;;;;;;;;5118144;27;19923;-78
2022/09/18 02:09:53;;;;;;;;;;;;;;;;;;5108854;27;19919;-78
2022/09/18 02:12:40;;;;;;;;;;;;;;;;;;5112799;27;20519;-78
2022/09/18 02:15:26;;;;;;;;;;;;;;;;;;5121600;27;19919;-78
2022/09/18 02:18:13;;;;;;;;;;;;;;;;;;5105355;27;19934;-79
2022/09/18 02:20:59;;;;;;;;;;;;;;;;;;5115861;27;19919;-80
2022/09/18 02:23:46;;;;;;;;;;;;;;;;;;5094975;27;20290;-80
2022/09/18 02:26:32;;;;;;;;;;;;;;;;;;5124157;27;20405;-79
2022/09/18 02:29:19;;;;;;;;;;;;;;;;;;5100074;27;19919;-78
2022/09/18 02:32:05;;;;;;;;;;;;;;;;;;5118906;27;19923;-80
2022/09/18 02:34:52;;;;;;;;;;;;;;;;;;5111857;27;19912;-80
2022/09/18 02:37:38;;;;;;;;;;;;;;;;;;5108644;27;19916;-78
2022/09/18 02:40:24;;;;;;;;;;;;;;;;;;5094468;27;19911;-79
2022/09/18 02:43:11;;;;;;;;;;;;;;;;;;5113671;27;19915;-79
2022/09/18 02:45:57;;;;;;;;;;;;;;;;;;5104333;27;19916;-79
2022/09/18 02:48:46;;;;;;;;;;;;;;;;;;5115946;27;19912;-78
2022/09/18 02:51:33;;;;;;;;;;;;;;;;;;5116969;27;19908;-78
2022/09/18 02:54:20;;;;;;;;;;;;;;;;;;5114423;27;19912;-78
2022/09/18 02:57:07;;;;;;;;;;;;;;;;;;5128862;27;20224;-79
2022/09/18 02:59:54;;;;;;;;;;;;;;;;;;5119702;27;19970;-79
2022/09/18 03:02:40;;;;;;;;;;;;;;;;;;5096080;27;19922;-80
2022/09/18 03:05:27;;;;;;;;;;;;;;;;;;5114452;27;19915;-79
2022/09/18 03:08:13;;;;;;;;;;;;;;;;;;5117801;27;19922;-79
2022/09/18 03:10:59;;;;;;;;;;;;;;;;;;5098517;27;19912;-80
2022/09/18 03:13:47;;;;;;;;;;;;;;;;;;5104045;27;20367;-79
2022/09/18 03:16:34;;;;;;;;;;;;;;;;;;5108666;28;19915;-79
2022/09/18 03:19:20;;;;;;;;;;;;;;;;;;5090861;28;20367;-78
2022/09/18 03:22:07;;;;;;;;;;;;;;;;;;5100954;27;19912;-80
2022/09/18 03:24:53;;;;;;;;;;;;;;;;;;5103111;27;19966;-80
2022/09/18 03:27:41;;;;;;;;;;;;;;;;;;5090426;27;19931;-78
2022/09/18 03:30:27;;;;;;;;;;;;;;;;;;5111825;27;19942;-80
2022/09/18 03:33:14;;;;;;;;;;;;;;;;;;5126649;27;19915;-79
2022/09/18 03:36:00;;;;;;;;;;;;;;;;;;5101902;27;20290;-79
2022/09/18 03:38:47;;;;;;;;;;;;;;;;;;5093872;28;20403;-79
2022/09/18 03:41:36;;;;;;;;;;;;;;;;;;5104093;27;19911;-80
2022/09/18 03:44:23;;;;;;;;;;;;;;;;;;5093010;28;19927;-80
2022/09/18 03:47:09;;;;;;;;;;;;;;;;;;5096611;27;19941;-81
2022/09/18 03:49:57;;;;;;;;;;;;;;;;;;5096362;27;19960;-81
2022/09/18 03:52:43;;;;;;;;;;;;;;;;;;5115560;27;19912;-78
2022/09/18 03:55:29;;;;;;;;;;;;;;;;;;5097843;27;19923;-79
2022/09/18 03:58:16;;;;;;;;;;;;;;;;;;5112141;27;19912;-80
2022/09/18 04:01:02;;;;;;;;;;;;;;;;;;5109823;27;19922;-79
2022/09/18 04:03:49;;;;;;;;;;;;;;;;;;5116281;27;19911;-80
2022/09/18 04:06:35;;;;;;;;;;;;;;;;;;5107884;27;19911;-80
2022/09/18 04:09:22;;;;;;;;;;;;;;;;;;5105373;27;19930;-80
2022/09/18 04:12:08;;;;;;;;;;;;;;;;;;5096533;27;19919;-79
2022/09/18 04:14:55;;;;;;;;;;;;;;;;;;5095421;28;19912;-79
2022/09/18 04:17:42;;;;;;;;;;;;;;;;;;5083918;28;19914;-79
2022/09/18 04:20:28;;;;;;;;;;;;;;;;;;5109081;27;19918;-79
2022/09/18 04:23:15;;;;;;;;;;;;;;;;;;5098730;27;20609;-79
2022/09/18 04:26:08;;;;;;;;;;;;;;;;;;5101256;28;20604;-78
2022/09/18 04:28:55;;;;;;;;;;;;;;;;;;5107981;28;20368;-78
2022/09/18 04:31:41;;;;;;;;;;;;;;;;;;5101089;28;20417;-78
2022/09/18 04:34:27;;;;;;;;;;;;;;;;;;5108264;27;19912;-78
2022/09/18 04:37:14;;;;;;;;;;;;;;;;;;5105595;27;19908;-79
2022/09/18 04:40:00;;;;;;;;;;;;;;;;;;5105535;28;20275;-80
2022/09/18 04:42:47;;;;;;;;;;;;;;;;;;5103726;27;19915;-79
2022/09/18 04:45:33;;;;;;;;;;;;;;;;;;5091709;28;19920;-79
2022/09/18 04:48:20;;;;;;;;;;;;;;;;;;5109429;27;19920;-79
2022/09/18 04:51:07;;;;;;;;;;;;;;;;;;5114183;27;19914;-78
2022/09/18 04:53:54;;;;;;;;;;;;;;;;;;5105881;27;19912;-79
2022/09/18 04:56:40;;;;;;;;;;;;;;;;;;5107704;27;20295;-80
2022/09/18 04:59:27;;;;;;;;;;;;;;;;;;5108445;27;19918;-79
2022/09/18 05:02:13;;;;;;;;;;;;;;;;;;5106463;27;19922;-79
2022/09/18 05:05:00;;;;;;;;;;;;;;;;;;5109016;28;19923;-80
2022/09/18 05:07:46;;;;;;;;;;;;;;;;;;5093441;28;20003;-78
2022/09/18 05:10:33;;;;;;;;;;;;;;;;;;5096746;28;19915;-78
2022/09/18 05:13:19;;;;;;;;;;;;;;;;;;5092704;28;19915;-79
2022/09/18 05:16:06;;;;;;;;;;;;;;;;;;5090116;28;19926;-78
2022/09/18 05:18:52;;;;;;;;;;;;;;;;;;5103056;28;20371;-79
2022/09/18 05:21:39;;;;;;;;;;;;;;;;;;5091850;28;19908;-79
2022/09/18 05:24:25;;;;;;;;;;;;;;;;;;5098564;28;19930;-81
2022/09/18 05:27:12;;;;;;;;;;;;;;;;;;5105465;28;19927;-80
2022/09/18 05:29:58;;;;;;;;;;;;;;;;;;5094414;28;19918;-80
2022/09/18 05:32:45;;;;;;;;;;;;;;;;;;5109544;28;19916;-81
2022/09/18 05:35:32;;;;;;;;;;;;;;;;;;5110833;28;19912;-79
2022/09/18 05:38:18;;;;;;;;;;;;;;;;;;5099094;28;19914;-80
2022/09/18 05:41:05;;;;;;;;;;;;;;;;;;5105160;28;20375;-78
2022/09/18 05:43:52;;;;;;;;;;;;;;;;;;5113197;28;19938;-79
2022/09/18 05:46:38;;;;;;;;;;;;;;;;;;5103258;28;19936;-80
2022/09/18 05:49:25;;;;;;;;;;;;;;;;;;5107076;28;20430;-79
2022/09/18 05:52:11;;;;;;;;;;;;;;;;;;5099235;28;19915;-80
2022/09/18 05:54:57;;;;;;;;;;;;;;;;;;5102675;28;20389;-80
2022/09/18 05:57:44;;;;;;;;;;;;;;;;;;5112764;27;19912;-81
2022/09/18 06:00:31;;;;;;;;;;;;;;;;;;5096058;28;19918;-80
2022/09/18 06:03:17;;;;;;;;;;;;;;;;;;5104013;27;19925;-82
2022/09/18 06:06:04;;;;;;;;;;;;;;;;;;5120508;27;19919;-81
2022/09/18 06:08:50;;;;;;;;;;;;;;;;;;5106394;27;19911;-81
2022/09/18 06:11:37;;;;;;;;;;;;;;;;;;5119802;27;19908;-80
2022/09/18 06:14:23;;;;;;;;;;;;;;;;;;5102840;27;19919;-81
2022/09/18 06:17:10;;;;;;;;;;;;;;;;;;5094640;27;19912;-81
2022/09/18 06:19:56;;;;;;;;;;;;;;;;;;5103366;28;19919;-79
2022/09/18 06:22:43;;;;;;;;;;;;;;;;;;5109515;27;19916;-79
2022/09/18 06:25:29;;;;;;;;;;;;;;;;;;5109058;27;19958;-79
2022/09/18 06:28:16;;;;;;;;;;;;;;;;;;5089721;28;19930;-80
2022/09/18 06:31:03;;;;;;;;;;;;;;;;;;5098662;27;20095;-80
2022/09/18 06:33:49;;;;;;;;;;;;;;;;;;5098610;27;19912;-81
2022/09/18 06:36:36;;;;;;;;;;;;;;;;;;5100693;27;19908;-80
2022/09/18 06:39:22;;;;;;;;;;;;;;;;;;5089684;27;20125;-80
2022/09/18 06:42:09;;;;;;;;;;;;;;;;;;5096918;27;19919;-78
2022/09/18 06:44:55;;;;;;;;;;;;;;;;;;5087876;27;19922;-80
2022/09/18 06:47:42;;;;;;;;;;;;;;;;;;5103411;28;19920;-78
2022/09/18 06:50:29;;;;;;;;;;;;;;;;;;5103927;27;19918;-81
2022/09/18 06:53:16;;;;;;;;;;;;;;;;;;5100567;27;19908;-80
2022/09/18 06:56:02;;;;;;;;;;;;;;;;;;5093059;27;19931;-81
2022/09/18 06:58:49;;;;;;;;;;;;;;;;;;5105623;28;19916;-80
2022/09/18 07:01:35;;;;;;;;;;;;;;;;;;5091602;27;20656;-83
2022/09/18 07:04:23;;;;;;;;;;;;;;;;;;5107934;27;19914;-81
2022/09/18 07:07:09;;;;;;;;;;;;;;;;;;5099906;27;20348;-79
2022/09/18 07:09:56;;;;;;;;;;;;;;;;;;5102660;28;19931;-82
2022/09/18 07:12:47;;;;;;;;;;;;;;;;;;5090646;27;19927;-81
2022/09/18 07:15:33;;;;;;;;;;;;;;;;;;5091580;28;19923;-82
2022/09/18 07:18:20;;;;;;;;;;;;;;;;;;5099559;27;19912;-79
2022/09/18 07:21:06;;;;;;;;;;;;;;;;;;5089387;28;19912;-79
2022/09/18 07:23:53;;;;;;;;;;;;;;;;;;5095176;28;19912;-76
2022/09/18 07:26:39;;;;;;;;;;;;;;;;;;5104423;27;19916;-75
2022/09/18 07:29:26;;;;;;;;;;;;;;;;;;5110941;27;20295;-77
2022/09/18 07:32:12;;;;;;;;;;;;;;;;;;5107663;27;19908;-76
2022/09/18 07:34:59;;;;;;;;;;;;;;;;;;5090740;28;19919;-76
2022/09/18 07:37:47;;;;;;;;;;;;;;;;;;5088939;28;20607;-76
2022/09/18 07:40:34;;;;;;;;;;;;;;;;;;5102221;28;19907;-75
2022/09/18 07:43:20;;;;;;;;;;;;;;;;;;5085237;28;20276;-76
2022/09/18 07:46:07;;;;;;;;;;;;;;;;;;5095579;27;19919;-76
2022/09/18 07:48:53;;;;;;;;;;;;;;;;;;5091818;27;19924;-76
2022/09/18 07:51:40;;;;;;;;;;;;;;;;;;5093776;27;19988;-78
2022/09/18 07:54:26;;;;;;;;;;;;;;;;;;5094851;28;19918;-77
2022/09/18 07:57:13;;;;;;;;;;;;;;;;;;5089163;27;20293;-77
2022/09/18 07:59:59;;;;;;;;;;;;;;;;;;5102520;27;19923;-77
2022/09/18 08:02:46;;;;;;;;;;;;;;;;;;5088918;28;19923;-76
2022/09/18 08:05:32;;;;;;;;;;;;;;;;;;5088355;28;19926;-76
2022/09/18 08:08:19;;;;;;;;;;;;;;;;;;5103445;27;19920;-76
2022/09/18 08:11:05;;;;;;;;;;;;;;;;;;5110384;27;19922;-77
2022/09/18 08:13:52;;;;;;;;;;;;;;;;;;5095445;27;19911;-77
2022/09/18 08:16:38;;;;;;;;;;;;;;;;;;5113277;27;19985;-77
2022/09/18 08:19:25;;;;;;;;;;;;;;;;;;5093661;27;20255;-77
2022/09/18 08:22:12;;;;;;;;;;;;;;;;;;5105373;27;19915;-79
2022/09/18 08:24:58;;;;;;;;;;;;;;;;;;5105563;27;19924;-76
2022/09/18 08:27:45;;;;;;;;;;;;;;;;;;5111159;27;19927;-77
2022/09/18 08:30:31;;;;;;;;;;;;;;;;;;5106127;27;19912;-77
2022/09/18 08:33:18;;;;;;;;;;;;;;;;;;5110817;27;19911;-77
2022/09/18 08:36:04;;;;;;;;;;;;;;;;;;5111710;27;20303;-77
2022/09/18 08:38:51;;;;;;;;;;;;;;;;;;5104187;27;19916;-80
2022/09/18 08:41:37;;;;;;;;;;;;;;;;;;5110357;27;19911;-76
2022/09/18 08:44:24;;;;;;;;;;;;;;;;;;5102555;27;19983;-78
2022/09/18 08:47:11;;;;;;;;;;;;;;;;;;5106311;28;19927;-78
2022/09/18 08:49:57;;;;;;;;;;;;;;;;;;5105937;27;19939;-76
2022/09/18 08:52:44;;;;;;;;;;;;;;;;;;5103016;27;19912;-77
2022/09/18 08:55:32;;;;;;;;;;;;;;;;;;5096847;27;19917;-77
2022/09/18 08:58:18;;;;;;;;;;;;;;;;;;5107723;27;19911;-76
2022/09/18 09:01:05;;;;;;;;;;;;;;;;;;5110466;27;19934;-78
2022/09/18 09:03:51;;;;;;;;;;;;;;;;;;5099433;27;19911;-77
2022/09/18 09:06:38;;;;;;;;;;;;;;;;;;5099955;28;19912;-76
2022/09/18 09:09:24;;;;;;;;;;;;;;;;;;5102162;28;19918;-80
2022/09/18 09:12:11;;;;;;;;;;;;;;;;;;5096467;28;19924;-77
2022/09/18 09:14:58;;;;;;;;;;;;;;;;;;5102610;28;19916;-76
2022/09/18 09:17:45;;;;;;;;;;;;;;;;;;5099429;28;19911;-75
2022/09/18 09:20:32;;;;;;;;;;;;;;;;;;5088088;28;19946;-76
2022/09/18 09:23:18;;;;;;;;;;;;;;;;;;5095197;28;19912;-75
2022/09/18 09:26:05;;;;;;;;;;;;;;;;;;5082998;28;19928;-78
2022/09/18 09:28:51;;;;;;;;;;;;;;;;;;5073959;28;19925;-75
2022/09/18 09:31:38;;;;;;;;;;;;;;;;;;5082261;28;19916;-76
2022/09/18 09:34:24;;;;;;;;;;;;;;;;;;5076061;28;19923;-76
2022/09/18 09:37:11;;;;;;;;;;;;;;;;;;5085945;28;20169;-76
2022/09/18 09:39:57;;;;;;;;;;;;;;;;;;5074698;28;19916;-76
2022/09/18 09:42:43;;;;;;;;;;;;;;;;;;5070002;28;19923;-76
2022/09/18 09:45:30;;;;;;;;;;;;;;;;;;5072656;28;19912;-78
2022/09/18 09:48:16;;;;;;;;;;;;;;;;;;5092884;28;19927;-76
2022/09/18 09:51:03;;;;;;;;;;;;;;;;;;5095209;28;20070;-75
2022/09/18 09:53:54;;;;;;;;;;;;;;;;;;5074260;28;19913;-76
2022/09/18 09:56:41;;;;;;;;;;;;;;;;;;5075509;28;19908;-76
2022/09/18 09:59:27;;;;;;;;;;;;;;;;;;5087542;28;19919;-76
2022/09/18 10:02:14;;;;;;;;;;;;;;;;;;5079181;28;19919;-76
2022/09/18 10:05:00;;;;;;;;;;;;;;;;;;5080190;28;20398;-76
2022/09/18 10:07:46;;;;;;;;;;;;;;;;;;5085152;28;19943;-79
2022/09/18 10:10:33;;;;;;;;;;;;;;;;;;5088764;28;19927;-76
2022/09/18 10:13:21;;;;;;;;;;;;;;;;;;5087780;28;19912;-78
2022/09/18 10:16:08;;;;;;;;;;;;;;;;;;5083339;28;20260;-80
2022/09/18 10:18:54;;;;;;;;;;;;;;;;;;5086035;28;19922;-79
2022/09/18 10:21:41;;;;;;;;;;;;;;;;;;5084656;28;19919;-80
2022/09/18 10:24:27;;;;;;;;;;;;;;;;;;5086700;27;19920;-80
2022/09/18 10:27:14;;;;;;;;;;;;;;;;;;5100987;28;19920;-80
2022/09/18 10:30:00;;;;;;;;;;;;;;;;;;5095516;28;19912;-81
2022/09/18 10:32:47;;;;;;;;;;;;;;;;;;5107610;27;19916;-81
2022/09/18 10:35:33;;;;;;;;;;;;;;;;;;5107441;27;20418;-81
2022/09/18 10:38:20;;;;;;;;;;;;;;;;;;5097050;28;19912;-79
2022/09/18 10:41:06;;;;;;;;;;;;;;;;;;5094930;28;19916;-78
2022/09/18 10:43:53;;;;;;;;;;;;;;;;;;5097580;27;20480;-78
2022/09/18 10:46:39;;;;;;;;;;;;;;;;;;5101652;27;19911;-79
2022/09/18 10:49:26;;;;;;;;;;;;;;;;;;5102656;27;19920;-78
2022/09/18 10:52:12;;;;;;;;;;;;;;;;;;5090009;28;19908;-79
2022/09/18 10:54:59;;;;;;;;;;;;;;;;;;5096791;27;20224;-79
2022/09/18 10:57:45;;;;;;;;;;;;;;;;;;5096452;27;19912;-79
2022/09/18 11:00:33;;;;;;;;;;;;;;;;;;5103424;27;19918;-78
2022/09/18 11:03:20;;;;;;;;;;;;;;;;;;5105269;27;19918;-77
2022/09/18 11:06:06;;;;;;;;;;;;;;;;;;5102536;27;20316;-77
2022/09/18 11:08:53;;;;;;;;;;;;;;;;;;5097169;28;19919;-77
2022/09/18 11:11:39;;;;;;;;;;;;;;;;;;5108123;27;19911;-79
2022/09/18 11:14:26;;;;;;;;;;;;;;;;;;5088107;28;19908;-78
2022/09/18 11:17:12;;;;;;;;;;;;;;;;;;5102746;28;19911;-79
2022/09/18 11:19:59;;;;;;;;;;;;;;;;;;5111649;28;19935;-78
2022/09/18 11:22:46;;;;;;;;;;;;;;;;;;5102253;27;19939;-80
2022/09/18 11:25:32;;;;;;;;;;;;;;;;;;5099709;28;19927;-79
2022/09/18 11:28:19;;;;;;;;;;;;;;;;;;5112761;27;20359;-78
2022/09/18 11:31:05;;;;;;;;;;;;;;;;;;5094871;27;19921;-79
2022/09/18 11:33:52;;;;;;;;;;;;;;;;;;5092109;28;20746;-79
2022/09/18 11:36:39;;;;;;;;;;;;;;;;;;5093752;28;20662;-79
2022/09/18 11:39:26;;;;;;;;;;;;;;;;;;5105886;27;19908;-78
2022/09/18 11:42:13;;;;;;;;;;;;;;;;;;5085138;28;19934;-80
2022/09/18 11:45:00;;;;;;;;;;;;;;;;;;5092648;28;19920;-80
2022/09/18 11:47:46;;;;;;;;;;;;;;;;;;5091366;28;20542;-80
2022/09/18 11:50:33;;;;;;;;;;;;;;;;;;5092715;28;19914;-80
2022/09/18 11:53:20;;;;;;;;;;;;;;;;;;5092368;27;19912;-82
2022/09/18 11:56:06;;;;;;;;;;;;;;;;;;5099246;27;19915;-80
2022/09/18 11:58:53;;;;;;;;;;;;;;;;;;5108531;27;19916;-78
2022/09/18 12:01:39;;;;;;;;;;;;;;;;;;5088790;28;19907;-78
2022/09/18 12:04:26;;;;;;;;;;;;;;;;;;5101794;28;19942;-76
2022/09/18 12:07:13;;;;;;;;;;;;;;;;;;5094033;28;19912;-76
2022/09/18 12:09:59;;;;;;;;;;;;;;;;;;5104256;27;19924;-77
2022/09/18 12:12:46;;;;;;;;;;;;;;;;;;5090246;28;19938;-77
2022/09/18 12:15:32;;;;;;;;;;;;;;;;;;5099244;28;19919;-77
2022/09/18 12:18:19;;;;;;;;;;;;;;;;;;5093831;28;19928;-77
2022/09/18 12:21:05;;;;;;;;;;;;;;;;;;5102684;28;19920;-76
2022/09/18 12:23:52;;;;;;;;;;;;;;;;;;5103882;27;19918;-77
2022/09/18 12:26:38;;;;;;;;;;;;;;;;;;5091822;28;19908;-78
2022/09/18 12:29:25;;;;;;;;;;;;;;;;;;5109234;27;19920;-76
2022/09/18 12:32:12;;;;;;;;;;;;;;;;;;5096677;28;19914;-77
2022/09/18 12:34:58;;;;;;;;;;;;;;;;;;5087427;28;19924;-78
2022/09/18 12:37:45;;;;;;;;;;;;;;;;;;5115135;27;19926;-78
2022/09/18 12:40:33;;;;;;;;;;;;;;;;;;5103588;28;19912;-77
2022/09/18 12:43:20;;;;;;;;;;;;;;;;;;5088667;28;20575;-79
2022/09/18 12:46:06;;;;;;;;;;;;;;;;;;5098622;28;19986;-77
2022/09/18 12:48:53;;;;;;;;;;;;;;;;;;5090078;28;19916;-78
2022/09/18 12:51:40;;;;;;;;;;;;;;;;;;5104832;27;19912;-80
2022/09/18 12:54:27;;;;;;;;;;;;;;;;;;5105826;28;19908;-78
2022/09/18 12:57:13;;;;;;;;;;;;;;;;;;5090777;28;20355;-76
2022/09/18 13:00:00;;;;;;;;;;;;;;;;;;5115580;27;19920;-77
2022/09/18 13:02:46;;;;;;;;;;;;;;;;;;5099728;28;19908;-77
2022/09/18 13:05:33;;;;;;;;;;;;;;;;;;5103728;28;19991;-77
2022/09/18 13:08:19;;;;;;;;;;;;;;;;;;5103864;28;19922;-78
2022/09/18 13:11:06;;;;;;;;;;;;;;;;;;5104017;28;19998;-78
2022/09/18 13:13:52;;;;;;;;;;;;;;;;;;5110957;28;19907;-77
2022/09/18 13:16:38;;;;;;;;;;;;;;;;;;5101906;28;19996;-79
2022/09/18 13:19:25;;;;;;;;;;;;;;;;;;5107669;28;19919;-78
2022/09/18 13:22:13;;;;;;;;;;;;;;;;;;5108110;28;19924;-78
2022/09/18 13:25:00;;;;;;;;;;;;;;;;;;5098376;28;19920;-77
2022/09/18 13:27:46;;;;;;;;;;;;;;;;;;5102227;28;19916;-78
2022/09/18 13:30:33;;;;;;;;;;;;;;;;;;5104499;28;19908;-78
2022/09/18 13:33:19;;;;;;;;;;;;;;;;;;5107274;28;19918;-77
2022/09/18 13:36:05;;;;;;;;;;;;;;;;;;5108718;28;20014;-78
2022/09/18 13:38:52;;;;;;;;;;;;;;;;;;5107377;28;19916;-78
2022/09/18 13:41:39;;;;;;;;;;;;;;;;;;5111655;28;19920;-73
2022/09/18 13:44:25;;;;;;;;;;;;;;;;;;5107083;28;20006;-78
2022/09/18 13:47:12;;;;;;;;;;;;;;;;;;5106672;28;19920;-76
2022/09/18 13:49:59;;;;;;;;;;;;;;;;;;5102445;28;19916;-77
2022/09/18 13:52:46;;;;;;;;;;;;;;;;;;5088266;28;19916;-78
2022/09/18 13:55:32;;;;;;;;;;;;;;;;;;5101136;28;20221;-78
2022/09/18 13:58:19;;;;;;;;;;;;;;;;;;5100477;28;19919;-76
2022/09/18 14:01:06;;;;;;;;;;;;;;;;;;5103279;28;19922;-78
2022/09/18 14:03:52;;;;;;;;;;;;;;;;;;5096826;28;19922;-78
2022/09/18 14:06:39;;;;;;;;;;;;;;;;;;5108806;28;19918;-78
2022/09/18 14:09:26;;;;;;;;;;;;;;;;;;5095938;28;19935;-79
2022/09/18 14:12:12;;;;;;;;;;;;;;;;;;5089110;28;20351;-78
2022/09/18 14:14:59;;;;;;;;;;;;;;;;;;5091024;28;20387;-77
2022/09/18 14:17:45;;;;;;;;;;;;;;;;;;5085959;27;19919;-77
2022/09/18 14:20:32;;;;;;;;;;;;;;;;;;5107244;27;19923;-78
2022/09/18 14:23:18;;;;;;;;;;;;;;;;;;5098143;27;19915;-79
2022/09/18 14:26:05;;;;;;;;;;;;;;;;;;5098907;27;19928;-79
2022/09/18 14:28:51;;;;;;;;;;;;;;;;;;5099431;28;19920;-79
2022/09/18 14:31:38;;;;;;;;;;;;;;;;;;5097886;27;20366;-80
2022/09/18 14:34:24;;;;;;;;;;;;;;;;;;5104689;27;19927;-80
2022/09/18 14:37:11;;;;;;;;;;;;;;;;;;5098172;27;19915;-79
2022/09/18 14:39:57;;;;;;;;;;;;;;;;;;5098029;27;20300;-79
2022/09/18 14:42:44;;;;;;;;;;;;;;;;;;5099046;28;19911;-79
2022/09/18 14:45:30;;;;;;;;;;;;;;;;;;5101089;27;19912;-78
2022/09/18 14:48:17;;;;;;;;;;;;;;;;;;5099836;27;19924;-77
2022/09/18 14:51:03;;;;;;;;;;;;;;;;;;5108804;27;19918;-77
2022/09/18 14:53:50;;;;;;;;;;;;;;;;;;5111964;27;19916;-77
2022/09/18 14:56:36;;;;;;;;;;;;;;;;;;5104341;27;19992;-78
2022/09/18 14:59:23;;;;;;;;;;;;;;;;;;5089848;28;20442;-78
2022/09/18 15:02:10;;;;;;;;;;;;;;;;;;5101711;27;19922;-77
2022/09/18 15:04:56;;;;;;;;;;;;;;;;;;5086972;28;19926;-77
2022/09/18 15:07:42;;;;;;;;;;;;;;;;;;5103278;27;19924;-79
2022/09/18 15:10:29;;;;;;;;;;;;;;;;;;5098648;27;20280;-78
2022/09/18 15:13:15;;;;;;;;;;;;;;;;;;5087287;27;19947;-79
2022/09/18 15:16:05;;;;;;;;;;;;;;;;;;5093117;28;19918;-77
2022/09/18 15:18:51;;;;;;;;;;;;;;;;;;5097932;27;19916;-78
2022/09/18 15:21:38;;;;;;;;;;;;;;;;;;5104754;28;20301;-77
2022/09/18 15:24:24;;;;;;;;;;;;;;;;;;5093337;28;19924;-78
2022/09/18 15:27:11;;;;;;;;;;;;;;;;;;5109386;27;19914;-78
2022/09/18 15:29:57;;;;;;;;;;;;;;;;;;5107692;28;19915;-77
2022/09/18 15:32:44;;;;;;;;;;;;;;;;;;5106587;27;20363;-77
2022/09/18 15:35:30;;;;;;;;;;;;;;;;;;5082108;28;19923;-77
2022/09/18 15:38:17;;;;;;;;;;;;;;;;;;5107030;27;19916;-78
2022/09/18 15:41:03;;;;;;;;;;;;;;;;;;5081310;28;19912;-78
2022/09/18 15:43:50;;;;;;;;;;;;;;;;;;5091011;28;19912;-77
2022/09/18 15:46:36;;;;;;;;;;;;;;;;;;5096225;28;19916;-77
2022/09/18 15:49:23;;;;;;;;;;;;;;;;;;5098923;27;19953;-77
2022/09/18 15:52:09;;;;;;;;;;;;;;;;;;5090247;28;19915;-77
2022/09/18 15:54:56;;;;;;;;;;;;;;;;;;5101710;28;19961;-77
2022/09/18 15:57:42;;;;;;;;;;;;;;;;;;5094181;27;19912;-77
2022/09/18 16:00:29;;;;;;;;;;;;;;;;;;5095537;28;19912;-76
2022/09/18 16:03:15;;;;;;;;;;;;;;;;;;5099070;27;19942;-77
2022/09/18 16:06:02;;;;;;;;;;;;;;;;;;5101257;27;19918;-78
2022/09/18 16:08:48;;;;;;;;;;;;;;;;;;5104005;28;20014;-78
2022/09/18 16:11:35;;;;;;;;;;;;;;;;;;5103810;27;20345;-80
2022/09/18 16:14:21;;;;;;;;;;;;;;;;;;5103899;27;20279;-77
2022/09/18 16:17:08;;;;;;;;;;;;;;;;;;5106812;27;20392;-77
2022/09/18 16:19:55;;;;;;;;;;;;;;;;;;5105563;27;19914;-79
2022/09/18 16:22:41;;;;;;;;;;;;;;;;;;5091364;28;19916;-78
2022/09/18 16:25:28;;;;;;;;;;;;;;;;;;5087318;28;20318;-76
2022/09/18 16:28:15;;;;;;;;;;;;;;;;;;5104304;27;19962;-78
2022/09/18 16:31:01;;;;;;;;;;;;;;;;;;5089475;27;20252;-75
2022/09/18 16:33:48;;;;;;;;;;;;;;;;;;5096133;28;19908;-76
2022/09/18 16:36:34;;;;;;;;;;;;;;;;;;5097922;27;19912;-78
2022/09/18 16:39:21;;;;;;;;;;;;;;;;;;5091304;28;19926;-78
2022/09/18 16:42:07;;;;;;;;;;;;;;;;;;5098841;28;19912;-78
2022/09/18 16:44:54;;;;;;;;;;;;;;;;;;5088242;28;19912;-77
2022/09/18 16:47:42;;;;;;;;;;;;;;;;;;5100824;27;20450;-77
2022/09/18 16:50:29;;;;;;;;;;;;;;;;;;5081099;27;20301;-76
2022/09/18 16:53:15;;;;;;;;;;;;;;;;;;5097719;27;19920;-78
2022/09/18 16:56:02;;;;;;;;;;;;;;;;;;5114423;28;20244;-80
2022/09/18 16:58:48;;;;;;;;;;;;;;;;;;5104257;28;20006;-79
2022/09/18 17:01:35;;;;;;;;;;;;;;;;;;5099852;28;20370;-79
2022/09/18 17:04:21;;;;;;;;;;;;;;;;;;5113768;28;19916;-79
2022/09/18 17:07:17;;;;;;;;;;;;;;;;;;5119745;27;19921;-81
2022/09/18 17:10:03;;;;;;;;;;;;;;;;;;5112941;28;19922;-78
2022/09/18 17:12:50;;;;;;;;;;;;;;;;;;5091732;28;19915;-79
2022/09/18 17:15:36;;;;;;;;;;;;;;;;;;5105259;28;20427;-76
2022/09/18 17:18:23;;;;;;;;;;;;;;;;;;5112193;28;19916;-79
2022/09/18 17:21:10;;;;;;;;;;;;;;;;;;5106233;28;19918;-78
2022/09/18 17:23:56;;;;;;;;;;;;;;;;;;5105290;28;19928;-80
2022/09/18 17:26:43;;;;;;;;;;;;;;;;;;5081354;28;19912;-78
2022/09/18 17:29:29;;;;;;;;;;;;;;;;;;5075517;28;20272;-78
2022/09/18 17:32:16;;;;;;;;;;;;;;;;;;5081295;28;20271;-79
2022/09/18 17:35:02;;;;;;;;;;;;;;;;;;5087533;28;19913;-77
2022/09/18 17:37:50;;;;;;;;;;;;;;;;;;5080675;28;19920;-78
2022/09/18 17:40:37;;;;;;;;;;;;;;;;;;5086411;28;19919;-78
2022/09/18 17:43:24;;;;;;;;;;;;;;;;;;5087358;28;19919;-78
2022/09/18 17:46:10;;;;;;;;;;;;;;;;;;5084521;28;19912;-79
2022/09/18 17:48:57;;;;;;;;;;;;;;;;;;5082042;28;19930;-79
2022/09/18 17:51:44;;;;;;;;;;;;;;;;;;5089322;28;19947;-78
2022/09/18 17:54:30;;;;;;;;;;;;;;;;;;5076355;28;20679;-84
2022/09/18 17:57:17;;;;;;;;;;;;;;;;;;5082493;28;19932;-83
2022/09/18 18:00:04;;;;;;;;;;;;;;;;;;5085686;28;19914;-83
2022/09/18 18:02:51;;;;;;;;;;;;;;;;;;5093831;28;19918;-84
2022/09/18 18:05:37;;;;;;;;;;;;;;;;;;5074086;28;19916;-84
2022/09/18 18:08:27;;;;;;;;;;;;;;;;;;5085588;28;19924;-85
2022/09/18 18:11:14;;;;;;;;;;;;;;;;;;5094465;28;19927;-76
2022/09/18 18:14:02;;;;;;;;;;;;;;;;;;5096494;28;19916;-79
2022/09/18 18:16:48;;;;;;;;;;;;;;;;;;5083757;28;20371;-77
2022/09/18 18:19:35;;;;;;;;;;;;;;;;;;5096597;28;19912;-77
2022/09/18 18:22:21;;;;;;;;;;;;;;;;;;5083302;28;19944;-78
2022/09/18 18:25:08;;;;;;;;;;;;;;;;;;5105403;27;19919;-77
2022/09/18 18:27:54;;;;;;;;;;;;;;;;;;5098769;27;20367;-77
2022/09/18 18:30:43;;;;;;;;;;;;;;;;;;5096363;27;19915;-78
2022/09/18 18:33:31;;;;;;;;;;;;;;;;;;5120536;27;19912;-78
2022/09/18 18:36:17;;;;;;;;;;;;;;;;;;5106726;27;19918;-78
2022/09/18 18:39:05;;;;;;;;;;;;;;;;;;5124485;27;20017;-78
2022/09/18 18:41:51;;;;;;;;;;;;;;;;;;5118629;27;19923;-78
2022/09/18 18:44:40;;;;;;;;;;;;;;;;;;5109113;28;19918;-77
2022/09/18 18:47:28;;;;;;;;;;;;;;;;;;5121567;28;19999;-78
2022/09/18 18:50:15;;;;;;;;;;;;;;;;;;5126916;27;19912;-78
2022/09/18 18:53:02;;;;;;;;;;;;;;;;;;5113266;27;19916;-78
2022/09/18 18:55:50;;;;;;;;;;;;;;;;;;5112146;27;19911;-78
2022/09/18 18:58:36;;;;;;;;;;;;;;;;;;5112004;27;19924;-77